sensor_id;sensor_type;location;lat;lon;timestamp;temperature;humidity
71382;DHT22;60099;45.660;13.804;2022-10-16T00:01:59;16.00;99.90
71382;DHT22;60099;45.660;13.804;2022-10-16T00:04:25;15.90;99.90
71382;DHT22;60099;45.660;13.804;2022-10-16T00:06:51;15.80;99.90
71382;DHT22;60099;45.660;13.804;2022-10-16T00:09:16;15.80;99.90
71382;DHT22;60099;45.660;13.804;2022-10-16T00:11:42;15.90;99.90
71382;DHT22;60099;45.660;13.804;2022-10-16T00:14:13;15.90;99.90
71382;DHT22;60099;45.660;13.804;2022-10-16T00:16:40;16.00;99.90
71382;DHT22;60099;45.660;13.804;2022-10-16T00:19:06;16.00;99.90
71382;DHT22;60099;45.660;13.804;2022-10-16T00:21:33;16.00;99.90
71382;DHT22;60099;45.660;13.804;2022-10-16T00:24:03;16.00;99.90
71382;DHT22;60099;45.660;13.804;2022-10-16T00:26:31;16.10;99.90
71382;DHT22;60099;45.660;13.804;2022-10-16T00:28:57;16.30;99.90
71382;DHT22;60099;45.660;13.804;2022-10-16T00:31:24;16.20;99.90
71382;DHT22;60099;45.660;13.804;2022-10-16T00:33:50;16.10;99.90
71382;DHT22;60099;45.660;13.804;2022-10-16T00:36:18;15.90;99.90
71382;DHT22;60099;45.660;13.804;2022-10-16T00:38:45;15.90;99.90
71382;DHT22;60099;45.660;13.804;2022-10-16T00:41:14;15.90;99.90
71382;DHT22;60099;45.660;13.804;2022-10-16T00:46:35;16.00;99.90
71382;DHT22;60099;45.660;13.804;2022-10-16T00:49:05;16.20;99.90
71382;DHT22;60099;45.660;13.804;2022-10-16T01:04:44;16.30;99.90
71382;DHT22;60099;45.660;13.804;2022-10-16T01:13:03;15.80;99.90
71382;DHT22;60099;45.660;13.804;2022-10-16T01:15:36;16.00;99.90
71382;DHT22;60099;45.660;13.804;2022-10-16T01:18:18;15.80;99.90
71382;DHT22;60099;45.660;13.804;2022-10-16T01:20:53;16.00;99.90
71382;DHT22;60099;45.660;13.804;2022-10-16T01:23:48;16.10;99.90
71382;DHT22;60099;45.660;13.804;2022-10-16T01:26:38;16.00;99.90
71382;DHT22;60099;45.660;13.804;2022-10-16T01:29:30;16.00;99.90
71382;DHT22;60099;45.660;13.804;2022-10-16T01:32:01;16.20;99.90
71382;DHT22;60099;45.660;13.804;2022-10-16T01:34:56;16.10;99.90
71382;DHT22;60099;45.660;13.804;2022-10-16T01:37:36;16.00;99.90
71382;DHT22;60099;45.660;13.804;2022-10-16T01:40:07;15.80;99.90
71382;DHT22;60099;45.660;13.804;2022-10-16T01:42:37;16.00;99.90
71382;DHT22;60099;45.660;13.804;2022-10-16T01:45:05;16.00;99.90
71382;DHT22;60099;45.660;13.804;2022-10-16T01:47:34;16.20;99.90
71382;DHT22;60099;45.660;13.804;2022-10-16T01:50:08;16.20;99.90
71382;DHT22;60099;45.660;13.804;2022-10-16T01:52:37;16.20;99.90
71382;DHT22;60099;45.660;13.804;2022-10-16T01:55:06;16.10;99.90
71382;DHT22;60099;45.660;13.804;2022-10-16T01:57:36;15.90;99.90
71382;DHT22;60099;45.660;13.804;2022-10-16T02:00:09;15.90;99.90
71382;DHT22;60099;45.660;13.804;2022-10-16T02:02:36;16.00;99.90
71382;DHT22;60099;45.660;13.804;2022-10-16T02:05:05;16.20;99.90
71382;DHT22;60099;45.660;13.804;2022-10-16T02:07:36;16.20;99.90
71382;DHT22;60099;45.660;13.804;2022-10-16T02:10:02;16.20;99.90
71382;DHT22;60099;45.660;13.804;2022-10-16T02:12:34;16.10;99.90
71382;DHT22;60099;45.660;13.804;2022-10-16T02:15:02;16.10;99.90
71382;DHT22;60099;45.660;13.804;2022-10-16T02:17:28;16.10;99.90
71382;DHT22;60099;45.660;13.804;2022-10-16T02:19:56;16.00;99.90
71382;DHT22;60099;45.660;13.804;2022-10-16T02:22:35;16.00;99.90
71382;DHT22;60099;45.660;13.804;2022-10-16T02:25:48;15.90;99.90
71382;DHT22;60099;45.660;13.804;2022-10-16T02:28:19;16.00;99.90
71382;DHT22;60099;45.660;13.804;2022-10-16T02:30:52;16.20;99.90
71382;DHT22;60099;45.660;13.804;2022-10-16T02:33:21;16.40;99.90
71382;DHT22;60099;45.660;13.804;2022-10-16T02:35:49;16.40;99.90
71382;DHT22;60099;45.660;13.804;2022-10-16T02:38:17;16.20;99.90
71382;DHT22;60099;45.660;13.804;2022-10-16T02:40:44;16.00;99.90
71382;DHT22;60099;45.660;13.804;2022-10-16T02:43:10;16.10;99.90
71382;DHT22;60099;45.660;13.804;2022-10-16T02:45:36;16.20;99.90
71382;DHT22;60099;45.660;13.804;2022-10-16T02:48:02;16.30;99.90
71382;DHT22;60099;45.660;13.804;2022-10-16T02:50:28;16.30;99.90
71382;DHT22;60099;45.660;13.804;2022-10-16T02:52:54;16.30;99.90
71382;DHT22;60099;45.660;13.804;2022-10-16T02:55:26;16.20;99.90
71382;DHT22;60099;45.660;13.804;2022-10-16T02:57:53;16.20;99.90
71382;DHT22;60099;45.660;13.804;2022-10-16T03:00:19;16.10;99.90
71382;DHT22;60099;45.660;13.804;2022-10-16T03:02:46;16.30;99.90
71382;DHT22;60099;45.660;13.804;2022-10-16T03:05:12;16.40;99.90
71382;DHT22;60099;45.660;13.804;2022-10-16T03:07:38;16.50;99.90
71382;DHT22;60099;45.660;13.804;2022-10-16T03:10:04;16.30;99.90
71382;DHT22;60099;45.660;13.804;2022-10-16T03:12:30;16.20;99.90
71382;DHT22;60099;45.660;13.804;2022-10-16T03:14:56;16.20;99.90
71382;DHT22;60099;45.660;13.804;2022-10-16T03:17:23;16.30;99.90
71382;DHT22;60099;45.660;13.804;2022-10-16T03:19:49;16.30;99.90
71382;DHT22;60099;45.660;13.804;2022-10-16T03:22:15;16.30;99.90
71382;DHT22;60099;45.660;13.804;2022-10-16T03:24:40;16.40;99.90
71382;DHT22;60099;45.660;13.804;2022-10-16T03:27:08;16.40;99.90
71382;DHT22;60099;45.660;13.804;2022-10-16T03:29:34;16.50;99.90
71382;DHT22;60099;45.660;13.804;2022-10-16T03:32:00;16.50;99.90
71382;DHT22;60099;45.660;13.804;2022-10-16T03:34:26;16.60;99.90
71382;DHT22;60099;45.660;13.804;2022-10-16T03:36:52;16.50;99.90
71382;DHT22;60099;45.660;13.804;2022-10-16T03:39:18;16.40;99.90
71382;DHT22;60099;45.660;13.804;2022-10-16T03:41:44;16.20;99.90
71382;DHT22;60099;45.660;13.804;2022-10-16T03:44:11;16.20;99.90
71382;DHT22;60099;45.660;13.804;2022-10-16T03:46:37;16.20;99.90
71382;DHT22;60099;45.660;13.804;2022-10-16T03:49:03;16.20;99.90
71382;DHT22;60099;45.660;13.804;2022-10-16T03:51:29;16.40;99.90
71382;DHT22;60099;45.660;13.804;2022-10-16T03:53:54;16.40;99.90
71382;DHT22;60099;45.660;13.804;2022-10-16T03:56:20;16.40;99.90
71382;DHT22;60099;45.660;13.804;2022-10-16T03:58:46;16.50;99.90
71382;DHT22;60099;45.660;13.804;2022-10-16T04:01:11;16.60;99.90
71382;DHT22;60099;45.660;13.804;2022-10-16T04:03:37;16.60;99.90
71382;DHT22;60099;45.660;13.804;2022-10-16T04:06:03;16.70;99.90
71382;DHT22;60099;45.660;13.804;2022-10-16T04:08:29;16.70;99.90
71382;DHT22;60099;45.660;13.804;2022-10-16T04:10:54;16.60;99.90
71382;DHT22;60099;45.660;13.804;2022-10-16T04:13:20;16.50;99.90
71382;DHT22;60099;45.660;13.804;2022-10-16T04:15:46;16.40;99.90
71382;DHT22;60099;45.660;13.804;2022-10-16T04:18:12;16.40;99.90
71382;DHT22;60099;45.660;13.804;2022-10-16T04:20:37;16.40;99.90
71382;DHT22;60099;45.660;13.804;2022-10-16T04:23:04;16.50;99.90
71382;DHT22;60099;45.660;13.804;2022-10-16T04:25:30;16.50;99.90
71382;DHT22;60099;45.660;13.804;2022-10-16T04:27:56;16.50;99.90
71382;DHT22;60099;45.660;13.804;2022-10-16T04:30:23;16.60;99.90
71382;DHT22;60099;45.660;13.804;2022-10-16T04:32:52;16.50;99.90
71382;DHT22;60099;45.660;13.804;2022-10-16T04:35:19;16.50;99.90
71382;DHT22;60099;45.660;13.804;2022-10-16T04:37:45;16.60;99.90
71382;DHT22;60099;45.660;13.804;2022-10-16T04:40:11;16.60;99.90
71382;DHT22;60099;45.660;13.804;2022-10-16T04:42:37;16.60;99.90
71382;DHT22;60099;45.660;13.804;2022-10-16T04:45:04;16.70;99.90
71382;DHT22;60099;45.660;13.804;2022-10-16T04:47:30;16.60;99.90
71382;DHT22;60099;45.660;13.804;2022-10-16T04:49:55;16.60;99.90
71382;DHT22;60099;45.660;13.804;2022-10-16T04:52:22;16.40;99.90
71382;DHT22;60099;45.660;13.804;2022-10-16T04:54:50;16.50;99.90
71382;DHT22;60099;45.660;13.804;2022-10-16T04:57:16;16.50;99.90
71382;DHT22;60099;45.660;13.804;2022-10-16T04:59:42;16.50;99.90
71382;DHT22;60099;45.660;13.804;2022-10-16T05:02:08;16.60;99.90
71382;DHT22;60099;45.660;13.804;2022-10-16T05:04:34;16.50;99.90
71382;DHT22;60099;45.660;13.804;2022-10-16T05:06:59;16.40;99.90
71382;DHT22;60099;45.660;13.804;2022-10-16T05:09:25;16.30;99.90
71382;DHT22;60099;45.660;13.804;2022-10-16T05:11:51;16.30;99.90
71382;DHT22;60099;45.660;13.804;2022-10-16T05:14:16;16.20;99.90
71382;DHT22;60099;45.660;13.804;2022-10-16T05:16:42;16.10;99.90
71382;DHT22;60099;45.660;13.804;2022-10-16T05:19:08;16.10;99.90
71382;DHT22;60099;45.660;13.804;2022-10-16T05:21:34;16.20;99.90
71382;DHT22;60099;45.660;13.804;2022-10-16T05:23:59;16.10;99.90
71382;DHT22;60099;45.660;13.804;2022-10-16T05:26:25;16.00;99.90
71382;DHT22;60099;45.660;13.804;2022-10-16T05:28:52;15.90;99.90
71382;DHT22;60099;45.660;13.804;2022-10-16T05:31:18;15.90;99.90
71382;DHT22;60099;45.660;13.804;2022-10-16T05:33:44;15.90;99.90
71382;DHT22;60099;45.660;13.804;2022-10-16T05:36:09;15.90;99.90
71382;DHT22;60099;45.660;13.804;2022-10-16T05:38:38;16.00;99.90
71382;DHT22;60099;45.660;13.804;2022-10-16T05:41:05;16.00;99.90
71382;DHT22;60099;45.660;13.804;2022-10-16T05:43:31;16.00;99.90
71382;DHT22;60099;45.660;13.804;2022-10-16T05:46:04;16.10;99.90
71382;DHT22;60099;45.660;13.804;2022-10-16T05:48:31;16.20;99.90
71382;DHT22;60099;45.660;13.804;2022-10-16T05:53:24;16.40;99.90
71382;DHT22;60099;45.660;13.804;2022-10-16T05:55:56;16.40;99.90
71382;DHT22;60099;45.660;13.804;2022-10-16T05:58:23;16.40;99.90
71382;DHT22;60099;45.660;13.804;2022-10-16T06:00:57;16.40;99.90
71382;DHT22;60099;45.660;13.804;2022-10-16T06:03:23;16.30;99.90
71382;DHT22;60099;45.660;13.804;2022-10-16T06:05:49;16.30;99.90
71382;DHT22;60099;45.660;13.804;2022-10-16T06:08:15;16.40;99.90
71382;DHT22;60099;45.660;13.804;2022-10-16T06:10:41;16.40;99.90
71382;DHT22;60099;45.660;13.804;2022-10-16T06:13:06;16.50;99.90
71382;DHT22;60099;45.660;13.804;2022-10-16T06:15:32;16.50;99.90
71382;DHT22;60099;45.660;13.804;2022-10-16T06:17:58;16.40;99.90
71382;DHT22;60099;45.660;13.804;2022-10-16T06:20:23;16.30;99.90
71382;DHT22;60099;45.660;13.804;2022-10-16T06:22:49;16.30;99.90
71382;DHT22;60099;45.660;13.804;2022-10-16T06:25:15;16.50;99.90
71382;DHT22;60099;45.660;13.804;2022-10-16T06:27:41;16.50;99.90
71382;DHT22;60099;45.660;13.804;2022-10-16T06:30:07;16.60;99.90
71382;DHT22;60099;45.660;13.804;2022-10-16T06:32:33;16.60;99.90
71382;DHT22;60099;45.660;13.804;2022-10-16T06:34:58;16.60;99.90
71382;DHT22;60099;45.660;13.804;2022-10-16T06:37:24;16.70;99.90
71382;DHT22;60099;45.660;13.804;2022-10-16T06:39:50;16.80;99.90
71382;DHT22;60099;45.660;13.804;2022-10-16T06:42:19;16.90;99.90
71382;DHT22;60099;45.660;13.804;2022-10-16T06:44:45;17.00;99.90
71382;DHT22;60099;45.660;13.804;2022-10-16T06:47:11;17.10;99.90
71382;DHT22;60099;45.660;13.804;2022-10-16T06:49:36;17.10;99.90
71382;DHT22;60099;45.660;13.804;2022-10-16T06:52:03;17.10;99.90
71382;DHT22;60099;45.660;13.804;2022-10-16T06:54:30;17.10;99.90
71382;DHT22;60099;45.660;13.804;2022-10-16T06:56:56;17.20;99.90
71382;DHT22;60099;45.660;13.804;2022-10-16T06:59:22;17.20;99.90
71382;DHT22;60099;45.660;13.804;2022-10-16T07:01:48;17.20;99.90
71382;DHT22;60099;45.660;13.804;2022-10-16T07:04:13;17.00;99.90
71382;DHT22;60099;45.660;13.804;2022-10-16T07:06:39;17.00;99.90
71382;DHT22;60099;45.660;13.804;2022-10-16T07:09:08;17.00;99.90
71382;DHT22;60099;45.660;13.804;2022-10-16T07:11:36;17.20;99.90
71382;DHT22;60099;45.660;13.804;2022-10-16T07:14:18;17.30;99.90
71382;DHT22;60099;45.660;13.804;2022-10-16T07:16:44;17.40;99.90
71382;DHT22;60099;45.660;13.804;2022-10-16T07:19:10;17.50;99.90
71382;DHT22;60099;45.660;13.804;2022-10-16T07:21:37;17.50;99.90
71382;DHT22;60099;45.660;13.804;2022-10-16T07:24:05;17.60;99.90
71382;DHT22;60099;45.660;13.804;2022-10-16T07:26:34;17.60;99.90
71382;DHT22;60099;45.660;13.804;2022-10-16T07:29:00;17.80;99.90
71382;DHT22;60099;45.660;13.804;2022-10-16T07:31:27;17.90;99.90
71382;DHT22;60099;45.660;13.804;2022-10-16T07:33:53;17.80;99.90
71382;DHT22;60099;45.660;13.804;2022-10-16T07:36:20;17.80;99.90
71382;DHT22;60099;45.660;13.804;2022-10-16T07:38:46;17.90;99.90
71382;DHT22;60099;45.660;13.804;2022-10-16T07:41:15;18.10;99.90
71382;DHT22;60099;45.660;13.804;2022-10-16T07:43:45;18.20;99.90
71382;DHT22;60099;45.660;13.804;2022-10-16T07:46:11;18.40;99.90
71382;DHT22;60099;45.660;13.804;2022-10-16T07:48:37;18.40;99.90
71382;DHT22;60099;45.660;13.804;2022-10-16T07:51:05;18.50;99.90
71382;DHT22;60099;45.660;13.804;2022-10-16T07:53:32;18.60;99.80
71382;DHT22;60099;45.660;13.804;2022-10-16T07:56:06;18.70;99.90
71382;DHT22;60099;45.660;13.804;2022-10-16T07:58:33;18.80;99.20
71382;DHT22;60099;45.660;13.804;2022-10-16T08:01:04;18.90;99.20
71382;DHT22;60099;45.660;13.804;2022-10-16T08:03:30;18.90;99.40
71382;DHT22;60099;45.660;13.804;2022-10-16T08:05:57;19.00;99.00
71382;DHT22;60099;45.660;13.804;2022-10-16T08:08:23;19.10;99.00
71382;DHT22;60099;45.660;13.804;2022-10-16T08:10:49;19.10;98.90
71382;DHT22;60099;45.660;13.804;2022-10-16T08:13:15;19.10;98.90
71382;DHT22;60099;45.660;13.804;2022-10-16T08:15:42;19.20;98.80
71382;DHT22;60099;45.660;13.804;2022-10-16T08:18:09;19.30;99.00
71382;DHT22;60099;45.660;13.804;2022-10-16T08:20:35;19.30;98.80
71382;DHT22;60099;45.660;13.804;2022-10-16T08:23:01;19.40;98.50
71382;DHT22;60099;45.660;13.804;2022-10-16T08:25:28;19.50;98.50
71382;DHT22;60099;45.660;13.804;2022-10-16T08:27:54;19.60;98.50
71382;DHT22;60099;45.660;13.804;2022-10-16T08:30:21;19.70;97.90
71382;DHT22;60099;45.660;13.804;2022-10-16T08:32:48;19.80;98.30
71382;DHT22;60099;45.660;13.804;2022-10-16T08:35:14;19.90;97.30
71382;DHT22;60099;45.660;13.804;2022-10-16T08:37:41;20.00;96.90
71382;DHT22;60099;45.660;13.804;2022-10-16T08:40:36;20.20;95.90
71382;DHT22;60099;45.660;13.804;2022-10-16T08:50:44;20.60;93.90
71382;DHT22;60099;45.660;13.804;2022-10-16T08:53:35;20.60;94.10
71382;DHT22;60099;45.660;13.804;2022-10-16T08:56:02;20.70;94.50
71382;DHT22;60099;45.660;13.804;2022-10-16T08:58:29;20.90;94.60
71382;DHT22;60099;45.660;13.804;2022-10-16T09:00:58;21.00;93.20
71382;DHT22;60099;45.660;13.804;2022-10-16T09:16:43;21.40;92.20
71382;DHT22;60099;45.660;13.804;2022-10-16T09:19:15;21.30;92.20
71382;DHT22;60099;45.660;13.804;2022-10-16T09:21:45;21.20;92.80
71382;DHT22;60099;45.660;13.804;2022-10-16T09:24:21;21.00;92.90
71382;DHT22;60099;45.660;13.804;2022-10-16T09:26:47;21.00;93.10
71382;DHT22;60099;45.660;13.804;2022-10-16T09:29:14;20.90;93.70
71382;DHT22;60099;45.660;13.804;2022-10-16T09:31:42;20.80;94.20
71382;DHT22;60099;45.660;13.804;2022-10-16T09:34:50;20.80;94.60
71382;DHT22;60099;45.660;13.804;2022-10-16T09:37:12;20.90;94.50
71382;DHT22;60099;45.660;13.804;2022-10-16T09:39:50;21.10;94.40
71382;DHT22;60099;45.660;13.804;2022-10-16T09:42:36;21.30;93.70
71382;DHT22;60099;45.660;13.804;2022-10-16T09:45:03;21.50;93.50
71382;DHT22;60099;45.660;13.804;2022-10-16T09:47:31;21.70;93.30
71382;DHT22;60099;45.660;13.804;2022-10-16T09:50:03;21.80;93.10
71382;DHT22;60099;45.660;13.804;2022-10-16T09:52:32;22.00;92.60
71382;DHT22;60099;45.660;13.804;2022-10-16T09:55:00;22.20;92.60
71382;DHT22;60099;45.660;13.804;2022-10-16T09:57:27;22.20;91.80
71382;DHT22;60099;45.660;13.804;2022-10-16T09:59:57;22.30;91.70
71382;DHT22;60099;45.660;13.804;2022-10-16T10:02:33;22.30;92.10
71382;DHT22;60099;45.660;13.804;2022-10-16T10:04:59;22.50;91.70
71382;DHT22;60099;45.660;13.804;2022-10-16T10:07:27;22.50;91.80
71382;DHT22;60099;45.660;13.804;2022-10-16T10:09:55;22.70;91.20
71382;DHT22;60099;45.660;13.804;2022-10-16T10:12:24;22.70;90.70
71382;DHT22;60099;45.660;13.804;2022-10-16T10:14:52;22.70;91.90
71382;DHT22;60099;45.660;13.804;2022-10-16T10:17:26;22.70;91.00
71382;DHT22;60099;45.660;13.804;2022-10-16T10:22:47;23.00;90.40
71382;DHT22;60099;45.660;13.804;2022-10-16T10:32:55;23.00;88.30
71382;DHT22;60099;45.660;13.804;2022-10-16T10:38:31;23.10;85.10
71382;DHT22;60099;45.660;13.804;2022-10-16T10:46:50;23.10;85.60
71382;DHT22;60099;45.660;13.804;2022-10-16T10:49:39;23.20;86.70
71382;DHT22;60099;45.660;13.804;2022-10-16T11:03:53;23.30;84.80
71382;DHT22;60099;45.660;13.804;2022-10-16T11:06:31;23.60;81.30
71382;DHT22;60099;45.660;13.804;2022-10-16T11:11:47;23.90;79.90
71382;DHT22;60099;45.660;13.804;2022-10-16T11:17:00;25.50;76.00
71382;DHT22;60099;45.660;13.804;2022-10-16T11:19:35;26.80;71.50
71382;DHT22;60099;45.660;13.804;2022-10-16T11:25:33;29.20;59.40
71382;DHT22;60099;45.660;13.804;2022-10-16T11:30:29;30.50;55.40
71382;DHT22;60099;45.660;13.804;2022-10-16T11:35:55;31.70;51.30
71382;DHT22;60099;45.660;13.804;2022-10-16T11:38:52;32.10;49.90
71382;DHT22;60099;45.660;13.804;2022-10-16T11:41:43;32.70;47.60
71382;DHT22;60099;45.660;13.804;2022-10-16T11:47:34;32.90;46.70
71382;DHT22;60099;45.660;13.804;2022-10-16T11:53:04;32.30;48.30
71382;DHT22;60099;45.660;13.804;2022-10-16T11:58:05;32.30;48.30
71382;DHT22;60099;45.660;13.804;2022-10-16T12:09:03;29.50;53.10
71382;DHT22;60099;45.660;13.804;2022-10-16T12:16:50;27.50;59.00
71382;DHT22;60099;45.660;13.804;2022-10-16T12:19:20;26.70;61.00
71382;DHT22;60099;45.660;13.804;2022-10-16T12:21:46;26.40;64.10
71382;DHT22;60099;45.660;13.804;2022-10-16T12:24:27;26.10;65.50
71382;DHT22;60099;45.660;13.804;2022-10-16T12:26:53;25.90;67.10
71382;DHT22;60099;45.660;13.804;2022-10-16T12:29:37;25.80;68.90
71382;DHT22;60099;45.660;13.804;2022-10-16T12:32:29;25.80;68.90
71382;DHT22;60099;45.660;13.804;2022-10-16T12:34:56;25.90;68.80
71382;DHT22;60099;45.660;13.804;2022-10-16T12:37:25;26.10;68.20
71382;DHT22;60099;45.660;13.804;2022-10-16T12:39:53;26.10;67.80
71382;DHT22;60099;45.660;13.804;2022-10-16T12:42:33;26.10;67.90
71382;DHT22;60099;45.660;13.804;2022-10-16T12:44:59;26.20;67.20
71382;DHT22;60099;45.660;13.804;2022-10-16T12:49:58;26.70;64.90
71382;DHT22;60099;45.660;13.804;2022-10-16T12:52:38;26.60;65.30
71382;DHT22;60099;45.660;13.804;2022-10-16T12:55:05;26.30;66.80
71382;DHT22;60099;45.660;13.804;2022-10-16T13:12:18;24.50;74.10
71382;DHT22;60099;45.660;13.804;2022-10-16T13:28:35;23.60;79.60
71382;DHT22;60099;45.660;13.804;2022-10-16T13:31:04;23.50;79.80
71382;DHT22;60099;45.660;13.804;2022-10-16T13:33:34;23.40;80.40
71382;DHT22;60099;45.660;13.804;2022-10-16T13:36:00;23.40;80.80
71382;DHT22;60099;45.660;13.804;2022-10-16T13:38:31;23.20;80.10
71382;DHT22;60099;45.660;13.804;2022-10-16T13:41:13;23.10;80.40
71382;DHT22;60099;45.660;13.804;2022-10-16T13:43:53;23.20;80.90
71382;DHT22;60099;45.660;13.804;2022-10-16T13:46:25;23.10;81.40
71382;DHT22;60099;45.660;13.804;2022-10-16T13:49:04;23.00;82.30
71382;DHT22;60099;45.660;13.804;2022-10-16T13:51:32;23.00;81.80
71382;DHT22;60099;45.660;13.804;2022-10-16T13:53:58;22.90;81.80
71382;DHT22;60099;45.660;13.804;2022-10-16T13:56:32;22.80;82.90
71382;DHT22;60099;45.660;13.804;2022-10-16T13:59:23;22.70;83.20
71382;DHT22;60099;45.660;13.804;2022-10-16T14:01:50;22.70;84.10
71382;DHT22;60099;45.660;13.804;2022-10-16T14:04:18;22.60;85.40
71382;DHT22;60099;45.660;13.804;2022-10-16T14:06:46;22.60;85.30
71382;DHT22;60099;45.660;13.804;2022-10-16T14:09:27;22.50;85.90
71382;DHT22;60099;45.660;13.804;2022-10-16T14:11:57;22.50;87.20
71382;DHT22;60099;45.660;13.804;2022-10-16T14:14:24;22.50;88.20
71382;DHT22;60099;45.660;13.804;2022-10-16T14:16:51;22.40;88.20
71382;DHT22;60099;45.660;13.804;2022-10-16T14:19:28;22.40;89.20
71382;DHT22;60099;45.660;13.804;2022-10-16T14:21:54;22.40;89.00
71382;DHT22;60099;45.660;13.804;2022-10-16T14:24:32;22.40;88.30
71382;DHT22;60099;45.660;13.804;2022-10-16T14:26:59;22.30;88.70
71382;DHT22;60099;45.660;13.804;2022-10-16T14:29:27;22.20;89.60
71382;DHT22;60099;45.660;13.804;2022-10-16T14:32:03;22.10;90.20
71382;DHT22;60099;45.660;13.804;2022-10-16T14:34:38;22.10;90.30
71382;DHT22;60099;45.660;13.804;2022-10-16T14:37:07;22.10;90.40
71382;DHT22;60099;45.660;13.804;2022-10-16T14:39:34;22.00;91.00
71382;DHT22;60099;45.660;13.804;2022-10-16T14:42:00;21.90;91.30
71382;DHT22;60099;45.660;13.804;2022-10-16T14:44:32;21.90;91.30
71382;DHT22;60099;45.660;13.804;2022-10-16T14:47:09;21.80;91.40
71382;DHT22;60099;45.660;13.804;2022-10-16T14:49:38;21.80;91.80
71382;DHT22;60099;45.660;13.804;2022-10-16T14:52:09;21.70;91.50
71382;DHT22;60099;45.660;13.804;2022-10-16T14:54:41;21.60;91.90
71382;DHT22;60099;45.660;13.804;2022-10-16T14:57:18;21.50;92.50
71382;DHT22;60099;45.660;13.804;2022-10-16T14:59:45;21.50;93.20
71382;DHT22;60099;45.660;13.804;2022-10-16T15:04:46;21.40;93.70
71382;DHT22;60099;45.660;13.804;2022-10-16T15:07:12;21.30;94.10
71382;DHT22;60099;45.660;13.804;2022-10-16T15:09:38;21.30;94.20
71382;DHT22;60099;45.660;13.804;2022-10-16T15:12:04;21.30;94.30
71382;DHT22;60099;45.660;13.804;2022-10-16T15:14:29;21.20;94.60
71382;DHT22;60099;45.660;13.804;2022-10-16T15:16:55;21.20;94.70
71382;DHT22;60099;45.660;13.804;2022-10-16T15:19:21;21.20;95.00
71382;DHT22;60099;45.660;13.804;2022-10-16T15:21:48;21.20;94.90
71382;DHT22;60099;45.660;13.804;2022-10-16T15:24:15;21.20;94.90
71382;DHT22;60099;45.660;13.804;2022-10-16T15:26:41;21.10;95.40
71382;DHT22;60099;45.660;13.804;2022-10-16T15:29:07;21.00;95.80
71382;DHT22;60099;45.660;13.804;2022-10-16T15:31:33;21.00;96.00
71382;DHT22;60099;45.660;13.804;2022-10-16T15:33:59;21.00;96.20
71382;DHT22;60099;45.660;13.804;2022-10-16T15:36:31;20.90;96.70
71382;DHT22;60099;45.660;13.804;2022-10-16T15:38:59;20.80;96.60
71382;DHT22;60099;45.660;13.804;2022-10-16T15:41:25;20.80;96.90
71382;DHT22;60099;45.660;13.804;2022-10-16T15:43:52;20.70;97.30
71382;DHT22;60099;45.660;13.804;2022-10-16T15:46:22;20.70;97.60
71382;DHT22;60099;45.660;13.804;2022-10-16T15:48:49;20.60;97.80
71382;DHT22;60099;45.660;13.804;2022-10-16T15:51:15;20.60;97.90
71382;DHT22;60099;45.660;13.804;2022-10-16T15:53:42;20.60;97.70
71382;DHT22;60099;45.660;13.804;2022-10-16T15:56:09;20.60;97.70
71382;DHT22;60099;45.660;13.804;2022-10-16T15:58:35;20.50;97.90
71382;DHT22;60099;45.660;13.804;2022-10-16T16:01:02;20.20;98.70
71382;DHT22;60099;45.660;13.804;2022-10-16T16:03:29;20.00;99.40
71382;DHT22;60099;45.660;13.804;2022-10-16T16:05:57;19.90;99.90
71382;DHT22;60099;45.660;13.804;2022-10-16T16:08:23;19.90;99.90
71382;DHT22;60099;45.660;13.804;2022-10-16T16:11:09;19.90;99.90
71382;DHT22;60099;45.660;13.804;2022-10-16T16:13:35;19.80;99.90
71382;DHT22;60099;45.660;13.804;2022-10-16T16:16:12;19.60;99.90
71382;DHT22;60099;45.660;13.804;2022-10-16T16:18:38;19.50;99.90
71382;DHT22;60099;45.660;13.804;2022-10-16T16:21:05;19.40;99.90
71382;DHT22;60099;45.660;13.804;2022-10-16T16:23:31;19.40;99.90
71382;DHT22;60099;45.660;13.804;2022-10-16T16:26:11;19.30;99.90
71382;DHT22;60099;45.660;13.804;2022-10-16T16:28:38;19.20;99.90
71382;DHT22;60099;45.660;13.804;2022-10-16T16:31:04;19.10;99.90
71382;DHT22;60099;45.660;13.804;2022-10-16T16:33:30;19.00;99.90
71382;DHT22;60099;45.660;13.804;2022-10-16T16:36:01;18.90;99.90
71382;DHT22;60099;45.660;13.804;2022-10-16T16:38:29;18.80;99.90
71382;DHT22;60099;45.660;13.804;2022-10-16T16:40:55;18.80;99.90
71382;DHT22;60099;45.660;13.804;2022-10-16T16:43:27;18.80;99.90
71382;DHT22;60099;45.660;13.804;2022-10-16T16:45:54;18.70;99.90
71382;DHT22;60099;45.660;13.804;2022-10-16T16:48:20;18.60;99.90
71382;DHT22;60099;45.660;13.804;2022-10-16T16:50:46;18.50;99.90
71382;DHT22;60099;45.660;13.804;2022-10-16T16:53:12;18.50;99.90
71382;DHT22;60099;45.660;13.804;2022-10-16T16:55:38;18.40;99.90
71382;DHT22;60099;45.660;13.804;2022-10-16T16:58:04;18.40;99.90
71382;DHT22;60099;45.660;13.804;2022-10-16T17:00:30;18.40;99.90
71382;DHT22;60099;45.660;13.804;2022-10-16T17:02:56;18.50;99.90
71382;DHT22;60099;45.660;13.804;2022-10-16T17:05:23;18.60;99.90
71382;DHT22;60099;45.660;13.804;2022-10-16T17:07:48;18.70;99.90
71382;DHT22;60099;45.660;13.804;2022-10-16T17:10:14;18.60;99.90
71382;DHT22;60099;45.660;13.804;2022-10-16T17:12:40;18.30;99.90
71382;DHT22;60099;45.660;13.804;2022-10-16T17:15:06;18.20;99.90
71382;DHT22;60099;45.660;13.804;2022-10-16T17:17:32;18.30;99.90
71382;DHT22;60099;45.660;13.804;2022-10-16T17:19:58;18.40;99.90
71382;DHT22;60099;45.660;13.804;2022-10-16T17:22:24;18.40;99.90
71382;DHT22;60099;45.660;13.804;2022-10-16T17:24:50;18.40;99.90
71382;DHT22;60099;45.660;13.804;2022-10-16T17:27:17;18.30;99.90
71382;DHT22;60099;45.660;13.804;2022-10-16T17:29:43;18.20;99.90
71382;DHT22;60099;45.660;13.804;2022-10-16T17:32:09;18.10;99.90
71382;DHT22;60099;45.660;13.804;2022-10-16T17:34:36;18.00;99.90
71382;DHT22;60099;45.660;13.804;2022-10-16T17:37:02;18.20;99.90
71382;DHT22;60099;45.660;13.804;2022-10-16T17:39:28;18.10;99.90
71382;DHT22;60099;45.660;13.804;2022-10-16T17:41:53;18.00;99.90
71382;DHT22;60099;45.660;13.804;2022-10-16T17:44:20;17.90;99.90
71382;DHT22;60099;45.660;13.804;2022-10-16T17:46:51;17.90;99.90
71382;DHT22;60099;45.660;13.804;2022-10-16T17:49:17;18.00;99.90
71382;DHT22;60099;45.660;13.804;2022-10-16T17:51:43;18.10;99.90
71382;DHT22;60099;45.660;13.804;2022-10-16T17:54:09;18.00;99.90